createdAt,value
2019-05-21T00:01:14.848Z,86.34
2019-05-21T00:03:41.729Z,86.30
2019-05-21T00:06:08.712Z,86.08
2019-05-21T00:08:35.522Z,85.98
2019-05-21T00:11:02.517Z,85.79
2019-05-21T00:13:29.521Z,85.83
2019-05-21T00:15:56.532Z,86.09
2019-05-21T00:18:23.331Z,85.00
2019-05-21T00:20:50.136Z,85.70
2019-05-21T00:23:17.031Z,85.28
2019-05-21T00:25:44.114Z,85.37
2019-05-21T00:28:34.644Z,85.23
2019-05-21T00:31:58.179Z,85.09
2019-05-21T00:35:23.513Z,85.39
2019-05-21T00:38:46.891Z,85.82
2019-05-21T00:42:04.308Z,85.35
2019-05-21T00:44:41.317Z,85.42
2019-05-21T00:47:11.366Z,85.56
2019-05-21T00:49:39.232Z,85.34
2019-05-21T00:52:08.758Z,85.27
2019-05-21T00:54:35.731Z,85.26
2019-05-21T00:57:03.095Z,85.35
2019-05-21T00:59:30.599Z,85.28
2019-05-21T01:01:57.686Z,85.43
2019-05-21T01:04:24.691Z,85.65
2019-05-21T01:06:51.666Z,85.53
2019-05-21T01:09:18.554Z,85.67
2019-05-21T01:11:48.820Z,85.59
2019-05-21T01:14:15.948Z,85.74
2019-05-21T01:16:42.795Z,86.02
2019-05-21T01:19:09.782Z,85.75
2019-05-21T01:21:36.576Z,86.07
2019-05-21T01:24:04.346Z,85.71
2019-05-21T01:26:31.379Z,85.65
2019-05-21T01:28:58.183Z,85.54
2019-05-21T01:31:25.044Z,85.55
2019-05-21T01:33:51.815Z,85.68
2019-05-21T01:36:20.604Z,85.70
2019-05-21T01:38:47.516Z,85.05
2019-05-21T01:41:14.376Z,85.40
2019-05-21T01:43:41.292Z,85.34
2019-05-21T01:46:08.199Z,85.36
2019-05-21T01:48:35.293Z,85.24
2019-05-21T01:51:02.721Z,85.42
2019-05-21T01:53:29.500Z,85.06
2019-05-21T01:55:56.362Z,85.24
2019-05-21T01:58:23.643Z,85.10
2019-05-21T02:00:50.403Z,85.10
2019-05-21T02:03:17.396Z,84.96
2019-05-21T02:05:44.203Z,84.98
2019-05-21T02:08:13.185Z,85.31
2019-05-21T02:10:39.995Z,85.17
2019-05-21T02:13:07.660Z,85.29
2019-05-21T02:15:34.662Z,85.43
2019-05-21T02:18:01.472Z,85.30
2019-05-21T02:20:28.749Z,85.39
2019-05-21T02:22:55.698Z,85.67
2019-05-21T02:25:22.598Z,85.14
2019-05-21T02:27:49.348Z,85.38
2019-05-21T02:30:17.319Z,85.19
2019-05-21T02:32:44.231Z,84.99
2019-05-21T02:35:11.427Z,84.87
2019-05-21T02:37:38.221Z,85.00
2019-05-21T02:40:07.131Z,84.94
2019-05-21T02:42:34.924Z,84.69
2019-05-21T02:45:03.133Z,84.87
2019-05-21T02:47:30.309Z,85.06
2019-05-21T02:49:57.082Z,84.82
2019-05-21T02:52:23.886Z,84.70
2019-05-21T02:54:50.629Z,85.08
2019-05-21T02:57:17.540Z,84.91
2019-05-21T02:59:46.225Z,84.77
2019-05-21T03:02:27.028Z,84.81
2019-05-21T03:04:53.887Z,85.13
2019-05-21T03:07:20.798Z,84.86
2019-05-21T03:09:48.922Z,84.84
2019-05-21T03:12:17.046Z,84.71
2019-05-21T03:14:45.048Z,85.01
2019-05-21T03:17:12.423Z,85.13
2019-05-21T03:19:39.415Z,85.16
2019-05-21T03:22:06.544Z,85.63
2019-05-21T03:24:33.471Z,85.94
2019-05-21T03:27:00.510Z,86.07
2019-05-21T03:29:27.387Z,85.89
2019-05-21T03:31:54.321Z,85.85
2019-05-21T03:34:21.521Z,85.99
2019-05-21T03:36:48.453Z,86.00
2019-05-21T03:39:19.240Z,86.02
2019-05-21T03:41:44.169Z,86.17
2019-05-21T03:44:10.959Z,86.30
2019-05-21T03:46:38.496Z,86.36
2019-05-21T03:49:05.686Z,86.01
2019-05-21T03:51:32.571Z,86.18
2019-05-21T03:53:59.484Z,85.86
2019-05-21T03:56:26.287Z,86.00
2019-05-21T03:58:53.450Z,85.96
2019-05-21T04:01:20.217Z,85.74
2019-05-21T04:03:47.020Z,85.72
2019-05-21T04:06:13.764Z,85.70
2019-05-21T04:08:40.562Z,85.71
2019-05-21T04:11:07.803Z,86.14
2019-05-21T04:13:34.675Z,85.83
2019-05-21T04:16:06.158Z,86.06
2019-05-21T04:18:34.872Z,86.13
2019-05-21T04:21:01.623Z,85.82
2019-05-21T04:23:28.538Z,85.63
2019-05-21T04:25:55.318Z,86.04
2019-05-21T04:28:22.152Z,85.74
2019-05-21T04:30:51.858Z,85.59
2019-05-21T04:33:18.777Z,85.12
2019-05-21T04:35:45.525Z,85.29
2019-05-21T04:38:12.513Z,85.50
2019-05-21T04:40:39.304Z,85.36
2019-05-21T04:43:06.426Z,85.22
2019-05-21T04:45:33.242Z,85.12
2019-05-21T04:48:00.047Z,85.16
2019-05-21T04:50:27.033Z,84.85
2019-05-21T04:52:54.267Z,84.90
2019-05-21T04:55:21.063Z,85.02
2019-05-21T04:57:50.970Z,85.19
2019-05-21T05:00:18.081Z,85.20
2019-05-21T05:02:45.596Z,85.16
2019-05-21T05:05:13.576Z,85.21
2019-05-21T05:07:40.318Z,84.85
2019-05-21T05:10:07.734Z,85.07
2019-05-21T05:12:34.607Z,84.93
2019-05-21T05:15:01.587Z,85.35
2019-05-21T05:17:28.809Z,85.69
2019-05-21T05:19:56.091Z,85.64
2019-05-21T05:22:23.299Z,85.31
2019-05-21T05:24:50.165Z,85.53
2019-05-21T05:27:16.934Z,85.79
2019-05-21T05:29:43.722Z,85.78
2019-05-21T05:32:10.539Z,85.77
2019-05-21T05:34:37.394Z,85.85
2019-05-21T05:37:04.620Z,85.77
2019-05-21T05:39:31.580Z,85.97
2019-05-21T05:41:58.702Z,86.11
2019-05-21T05:44:25.904Z,85.73
2019-05-21T05:46:52.778Z,85.76
2019-05-21T05:49:21.550Z,86.18
2019-05-21T05:51:48.330Z,85.88
2019-05-21T05:54:15.117Z,86.14
2019-05-21T05:56:41.898Z,85.74
2019-05-21T05:59:09.035Z,85.98
2019-05-21T06:01:35.938Z,85.84
2019-05-21T06:04:03.091Z,86.04
2019-05-21T06:06:30.160Z,86.09
2019-05-21T06:08:56.994Z,85.97
2019-05-21T06:11:23.893Z,85.65
2019-05-21T06:13:50.912Z,86.14
2019-05-21T06:16:18.026Z,85.77
2019-05-21T06:18:45.425Z,85.72
2019-05-21T06:21:12.446Z,85.56
2019-05-21T06:23:39.231Z,85.80
2019-05-21T06:26:06.295Z,85.72
2019-05-21T06:28:33.113Z,86.35
2019-05-21T06:30:59.950Z,86.66
2019-05-21T06:33:26.825Z,86.46
2019-05-21T06:35:53.615Z,86.89
2019-05-21T06:38:20.509Z,86.88
2019-05-21T06:40:47.459Z,87.07
2019-05-21T06:43:14.711Z,86.86
2019-05-21T06:45:41.650Z,86.80
2019-05-21T06:48:08.478Z,86.81
2019-05-21T06:50:37.653Z,87.22
2019-05-21T06:53:04.195Z,86.87
2019-05-21T06:55:31.153Z,86.76
2019-05-21T06:57:58.045Z,87.28
2019-05-21T07:00:25.149Z,86.51
2019-05-21T07:02:51.927Z,86.81
2019-05-21T07:05:18.723Z,86.68
2019-05-21T07:07:45.498Z,86.88
2019-05-21T07:10:13.522Z,86.85
2019-05-21T07:12:40.355Z,87.27
2019-05-21T07:15:08.172Z,87.04
2019-05-21T07:17:35.640Z,87.16
2019-05-21T07:20:05.216Z,87.48
2019-05-21T07:22:31.999Z,87.32
2019-05-21T07:24:59.301Z,87.27
2019-05-21T07:27:26.729Z,87.47
2019-05-21T07:29:53.571Z,87.81
2019-05-21T07:32:20.459Z,87.25
2019-05-21T07:34:47.297Z,87.50
2019-05-21T07:37:14.095Z,87.36
2019-05-21T07:39:41.206Z,87.48
2019-05-21T07:42:08.178Z,87.55
2019-05-21T07:44:35.301Z,87.67
2019-05-21T07:47:02.504Z,87.60
2019-05-21T07:49:29.380Z,87.66
2019-05-21T07:51:56.539Z,88.29
2019-05-21T07:54:23.446Z,87.89
2019-05-21T07:56:50.818Z,87.84
2019-05-21T07:59:18.130Z,87.69
2019-05-21T08:01:44.957Z,87.78
2019-05-21T08:04:11.929Z,88.21
2019-05-21T08:06:38.749Z,87.93
2019-05-21T08:09:14.102Z,88.20
2019-05-21T08:11:36.313Z,88.38
2019-05-21T08:14:04.087Z,87.87
2019-05-21T08:16:30.861Z,88.03
2019-05-21T08:19:01.059Z,87.35
2019-05-21T08:21:28.324Z,87.37
2019-05-21T08:23:55.870Z,87.18
2019-05-21T08:26:22.659Z,87.73
2019-05-21T08:28:49.758Z,87.42
2019-05-21T08:31:16.813Z,87.60
2019-05-21T08:33:43.693Z,87.58
2019-05-21T08:36:10.678Z,87.51
2019-05-21T08:38:37.758Z,87.54
2019-05-21T08:41:04.925Z,88.00
2019-05-21T08:43:31.809Z,88.09
2019-05-21T08:45:58.781Z,88.66
2019-05-21T08:48:25.784Z,88.88
2019-05-21T08:50:52.717Z,88.99
2019-05-21T08:53:19.854Z,88.83
2019-05-21T08:55:46.658Z,88.64
2019-05-21T08:58:13.470Z,87.87
2019-05-21T09:00:40.334Z,88.06
2019-05-21T09:03:07.617Z,88.34
2019-05-21T09:05:34.660Z,88.01
2019-05-21T09:08:01.506Z,87.96
2019-05-21T09:10:28.654Z,88.04
2019-05-21T09:12:55.462Z,88.21
2019-05-21T09:15:22.529Z,88.10
2019-05-21T09:17:49.343Z,87.71
2019-05-21T09:20:17.603Z,87.78
2019-05-21T09:22:45.283Z,87.65
2019-05-21T09:25:13.031Z,87.69
2019-05-21T09:27:41.100Z,87.66
2019-05-21T09:30:09.849Z,87.78
2019-05-21T09:32:37.111Z,87.57
2019-05-21T09:38:00.961Z,87.39
2019-05-21T09:40:28.271Z,87.33
2019-05-21T09:42:57.711Z,87.35
2019-05-21T09:45:24.619Z,87.55
2019-05-21T09:47:51.537Z,87.58
2019-05-21T09:50:19.239Z,87.73
2019-05-21T09:52:46.743Z,87.74
2019-05-21T09:55:14.443Z,87.50
2019-05-21T09:57:59.768Z,87.45
2019-05-21T10:00:46.301Z,87.56
2019-05-21T10:03:21.092Z,87.97
2019-05-21T10:05:48.314Z,88.15
2019-05-21T10:08:15.225Z,88.07
2019-05-21T10:10:41.951Z,88.08
2019-05-21T10:13:10.801Z,88.12
2019-05-21T10:15:37.637Z,87.67
2019-05-21T10:18:04.752Z,87.76
2019-05-21T10:20:31.609Z,87.62
2019-05-21T10:22:59.302Z,86.52
2019-05-21T10:25:26.427Z,86.15
2019-05-21T10:27:53.231Z,86.19
2019-05-21T10:30:20.214Z,86.44
2019-05-21T10:32:47.211Z,86.16
2019-05-21T10:35:14.141Z,86.44
2019-05-21T10:37:53.918Z,86.44
2019-05-21T10:40:10.208Z,86.67
2019-05-21T10:42:37.059Z,87.24
2019-05-21T10:45:06.347Z,87.44
2019-05-21T10:47:33.604Z,87.64
2019-05-21T10:50:00.497Z,87.60
2019-05-21T10:52:27.881Z,87.30
2019-05-21T10:54:54.870Z,87.60
2019-05-21T10:57:22.137Z,87.70
2019-05-21T10:59:48.992Z,87.54
2019-05-21T11:02:22.859Z,87.88
2019-05-21T11:04:54.461Z,88.62
2019-05-21T11:07:22.257Z,88.23
2019-05-21T11:09:49.343Z,87.82
2019-05-21T11:12:16.438Z,87.54
2019-05-21T11:14:43.514Z,87.66
2019-05-21T11:17:11.412Z,87.97
2019-05-21T11:19:40.904Z,87.68
2019-05-21T11:22:08.092Z,87.61
2019-05-21T11:24:35.455Z,87.26
2019-05-21T11:27:04.721Z,86.98
2019-05-21T11:29:31.821Z,87.37
2019-05-21T11:31:59.157Z,87.16
2019-05-21T11:34:26.610Z,87.02
2019-05-21T11:36:53.668Z,86.93
2019-05-21T11:39:21.224Z,86.51
2019-05-21T11:41:48.141Z,86.68
2019-05-21T11:44:15.081Z,87.08
2019-05-21T11:46:42.852Z,86.87
2019-05-21T11:49:09.799Z,86.77
2019-05-21T11:51:36.884Z,86.88
2019-05-21T11:54:03.802Z,87.04
2019-05-21T11:56:30.830Z,86.59
2019-05-21T11:58:58.031Z,86.57
2019-05-21T12:01:25.312Z,86.50
2019-05-21T12:03:52.529Z,87.01
2019-05-21T12:06:19.458Z,86.66
2019-05-21T12:08:56.278Z,86.93
2019-05-21T12:11:15.332Z,87.13
2019-05-21T12:13:42.412Z,86.87
2019-05-21T12:16:09.836Z,87.03
2019-05-21T12:18:37.056Z,86.94
2019-05-21T12:21:04.190Z,86.88
2019-05-21T12:23:31.175Z,87.17
2019-05-21T12:25:58.140Z,87.54
2019-05-21T12:28:24.885Z,87.70
2019-05-21T12:30:51.729Z,87.36
2019-05-21T12:33:19.133Z,87.25
2019-05-21T12:35:47.520Z,86.93
2019-05-21T12:38:15.129Z,86.81
2019-05-21T12:40:42.066Z,86.64
2019-05-21T12:43:09.102Z,87.07
2019-05-21T12:45:36.319Z,86.93
2019-05-21T12:48:03.476Z,86.63
2019-05-21T12:50:30.500Z,86.89
2019-05-21T12:52:57.634Z,86.96
2019-05-21T12:55:25.090Z,87.06
2019-05-21T12:57:52.296Z,86.77
2019-05-21T13:00:24.807Z,86.80
2019-05-21T13:02:51.683Z,86.83
2019-05-21T13:05:18.667Z,87.26
2019-05-21T13:07:45.552Z,87.52
2019-05-21T13:10:16.052Z,87.50
2019-05-21T13:12:42.977Z,87.67
2019-05-21T13:15:10.060Z,88.31
2019-05-21T13:17:36.925Z,87.59
2019-05-21T13:20:06.933Z,87.50
2019-05-21T13:22:34.340Z,87.71
2019-05-21T13:25:03.031Z,87.44
2019-05-21T13:27:29.936Z,87.29
2019-05-21T13:29:56.714Z,87.46
2019-05-21T13:32:23.617Z,87.40
2019-05-21T13:34:51.178Z,87.51
2019-05-21T13:37:18.409Z,87.52
2019-05-21T13:39:50.201Z,87.52
2019-05-21T13:42:14.130Z,87.35
2019-05-21T13:44:41.224Z,87.85
2019-05-21T13:47:08.452Z,87.73
2019-05-21T13:49:35.227Z,87.54
2019-05-21T13:52:02.091Z,87.89
2019-05-21T13:54:28.885Z,88.08
2019-05-21T13:56:55.674Z,88.34
2019-05-21T13:59:22.812Z,88.31
2019-05-21T14:01:50.685Z,87.80
2019-05-21T14:04:17.902Z,87.56
2019-05-21T14:06:45.101Z,87.82
2019-05-21T14:09:12.159Z,87.52
2019-05-21T14:11:39.244Z,87.74
2019-05-21T14:14:06.555Z,87.43
2019-05-21T14:16:34.897Z,87.69
2019-05-21T14:19:02.542Z,87.23
2019-05-21T14:21:29.953Z,86.62
2019-05-21T14:23:58.520Z,86.64
2019-05-21T14:26:25.362Z,87.04
2019-05-21T14:28:52.334Z,87.23
2019-05-21T14:31:19.404Z,87.43
2019-05-21T14:33:46.957Z,87.54
2019-05-21T14:36:13.992Z,87.48
2019-05-21T14:38:41.185Z,87.76
2019-05-21T14:41:08.970Z,87.45
2019-05-21T14:43:36.106Z,87.69
2019-05-21T14:46:03.964Z,88.00
2019-05-21T14:48:30.811Z,87.55
2019-05-21T14:50:57.714Z,87.95
2019-05-21T14:53:25.053Z,87.69
2019-05-21T14:55:51.922Z,87.70
2019-05-21T14:58:18.859Z,87.49
2019-05-21T15:00:46.191Z,87.31
2019-05-21T15:03:24.887Z,87.24
2019-05-21T15:05:44.072Z,87.14
2019-05-21T15:08:10.988Z,87.42
2019-05-21T15:10:47.973Z,87.24
2019-05-21T15:13:06.843Z,87.66
2019-05-21T15:15:34.334Z,87.22
2019-05-21T15:18:01.074Z,87.34
2019-05-21T15:20:30.403Z,87.43
2019-05-21T15:22:57.386Z,87.54
2019-05-21T15:25:24.488Z,87.74
2019-05-21T15:27:51.582Z,87.86
2019-05-21T15:30:18.613Z,87.96
2019-05-21T15:32:45.563Z,87.89
2019-05-21T15:35:12.749Z,87.65
2019-05-21T15:37:39.752Z,87.62
2019-05-21T15:40:09.211Z,87.77
2019-05-21T15:42:36.140Z,87.70
2019-05-21T15:45:07.535Z,87.79
2019-05-21T15:47:34.504Z,87.80
2019-05-21T15:50:01.536Z,87.50
2019-05-21T15:52:28.873Z,87.59
2019-05-21T15:54:55.740Z,87.61
2019-05-21T15:57:22.542Z,87.66
2019-05-21T15:59:49.303Z,87.60
2019-05-21T16:02:16.326Z,87.77
2019-05-21T16:04:43.176Z,88.08
2019-05-21T16:07:10.333Z,87.90
2019-05-21T16:09:37.150Z,88.06
2019-05-21T16:12:04.078Z,87.97
2019-05-21T16:14:31.024Z,88.15
2019-05-21T16:16:58.226Z,88.22
2019-05-21T16:19:25.068Z,88.22
2019-05-21T16:21:51.965Z,88.42
2019-05-21T16:24:18.884Z,88.33
2019-05-21T16:26:45.707Z,88.36
2019-05-21T16:29:12.530Z,88.42
2019-05-21T16:31:39.634Z,88.31
2019-05-21T16:34:06.525Z,88.62
2019-05-21T16:36:33.613Z,88.28
2019-05-21T16:39:00.839Z,88.27
2019-05-21T16:41:43.110Z,88.23
2019-05-21T16:43:56.665Z,88.29
2019-05-21T16:46:23.687Z,88.27
2019-05-21T16:48:50.810Z,87.88
2019-05-21T16:51:18.215Z,88.21
2019-05-21T16:53:44.983Z,88.23
2019-05-21T16:56:11.959Z,88.14
2019-05-21T16:58:39.284Z,87.92
2019-05-21T17:01:07.407Z,88.10
2019-05-21T17:03:36.535Z,88.37
2019-05-21T17:06:03.641Z,88.15
2019-05-21T17:08:30.589Z,88.14
2019-05-21T17:10:57.803Z,88.30
2019-05-21T17:13:25.501Z,88.19
2019-05-21T17:15:52.424Z,88.16
2019-05-21T17:18:19.533Z,87.99
2019-05-21T17:20:48.249Z,88.35
2019-05-21T17:23:15.517Z,88.19
2019-05-21T17:25:42.559Z,88.44
2019-05-21T17:28:10.428Z,88.87
2019-05-21T17:30:37.344Z,88.77
2019-05-21T17:33:04.573Z,88.99
2019-05-21T17:35:32.324Z,89.00
2019-05-21T17:37:59.413Z,88.77
2019-05-21T17:40:26.548Z,88.54
2019-05-21T17:42:53.567Z,88.61
2019-05-21T17:45:20.514Z,88.64
2019-05-21T17:47:47.489Z,89.04
2019-05-21T17:50:15.062Z,89.28
2019-05-21T17:52:42.131Z,89.32
2019-05-21T17:55:11.205Z,89.25
2019-05-21T17:57:38.224Z,89.39
2019-05-21T18:00:08.416Z,89.36
2019-05-21T18:02:35.793Z,89.30
2019-05-21T18:05:06.816Z,89.24
2019-05-21T18:07:34.893Z,89.36
2019-05-21T18:10:06.734Z,89.29
2019-05-21T18:12:34.132Z,89.21
2019-05-21T18:15:01.265Z,88.96
2019-05-21T18:17:30.269Z,89.42
2019-05-21T18:19:58.984Z,89.33
2019-05-21T18:22:28.776Z,89.52
2019-05-21T18:24:56.487Z,89.25
2019-05-21T18:27:24.311Z,89.23
2019-05-21T18:29:51.241Z,89.10
2019-05-21T18:32:18.466Z,88.89
2019-05-21T18:34:45.589Z,88.88
2019-05-21T18:37:15.919Z,89.00
2019-05-21T18:39:42.774Z,88.95
2019-05-21T18:42:21.559Z,88.88
2019-05-21T18:44:38.969Z,88.78
2019-05-21T18:47:05.887Z,89.01
2019-05-21T18:49:32.794Z,88.83
2019-05-21T18:51:59.675Z,88.99
2019-05-21T18:54:26.730Z,88.89
2019-05-21T18:56:54.202Z,88.82
2019-05-21T18:59:21.482Z,88.99
2019-05-21T19:01:48.774Z,88.84
2019-05-21T19:04:16.037Z,88.64
2019-05-21T19:06:43.741Z,88.74
2019-05-21T19:09:10.859Z,88.52
2019-05-21T19:11:38.400Z,88.40
2019-05-21T19:14:05.446Z,88.33
2019-05-21T19:16:32.392Z,88.38
2019-05-21T19:18:59.420Z,88.49
2019-05-21T19:21:26.590Z,88.81
2019-05-21T19:23:53.552Z,88.68
2019-05-21T19:26:20.860Z,88.45
2019-05-21T19:28:48.101Z,88.68
2019-05-21T19:31:15.073Z,88.29
2019-05-21T19:33:42.060Z,88.20
2019-05-21T19:36:09.201Z,88.29
2019-05-21T19:38:37.237Z,88.18
2019-05-21T19:41:04.464Z,87.75
2019-05-21T19:43:33.072Z,88.00
2019-05-21T19:46:00.063Z,87.85
2019-05-21T19:48:26.906Z,87.94
2019-05-21T19:50:53.700Z,87.88
2019-05-21T19:53:20.662Z,87.83
2019-05-21T19:55:48.064Z,87.89
2019-05-21T19:58:15.494Z,87.98
2019-05-21T20:00:47.860Z,87.96
2019-05-21T20:03:14.883Z,87.89
2019-05-21T20:05:42.497Z,88.09
2019-05-21T20:08:09.883Z,87.88
2019-05-21T20:10:37.122Z,88.00
2019-05-21T20:13:04.885Z,87.94
2019-05-21T20:15:31.762Z,87.69
2019-05-21T20:18:07.080Z,87.84
2019-05-21T20:20:28.289Z,87.66
2019-05-21T20:22:55.287Z,87.71
2019-05-21T20:25:23.600Z,87.74
2019-05-21T20:27:51.385Z,87.70
2019-05-21T20:30:20.935Z,87.82
2019-05-21T20:32:48.769Z,87.74
2019-05-21T20:35:17.562Z,87.99
2019-05-21T20:37:47.129Z,88.03
2019-05-21T20:40:15.092Z,87.70
2019-05-21T20:42:43.051Z,87.86
2019-05-21T20:45:13.286Z,88.05
2019-05-21T20:47:40.901Z,87.92
2019-05-21T20:50:12.085Z,87.97
2019-05-21T20:52:39.477Z,87.54
2019-05-21T20:55:10.456Z,87.80
2019-05-21T20:57:38.330Z,87.82
2019-05-21T21:00:10.223Z,87.75
2019-05-21T21:02:38.304Z,87.71
2019-05-21T21:05:07.358Z,87.69
2019-05-21T21:07:34.339Z,87.64
2019-05-21T21:10:02.489Z,87.83
2019-05-21T21:12:33.779Z,88.22
2019-05-21T21:15:01.292Z,88.05
2019-05-21T21:17:28.473Z,87.88
2019-05-21T21:19:55.567Z,87.81
2019-05-21T21:22:22.314Z,87.58
2019-05-21T21:24:49.213Z,87.65
2019-05-21T21:27:16.504Z,87.59
2019-05-21T21:29:43.868Z,87.45
2019-05-21T21:32:10.799Z,87.68
2019-05-21T21:34:38.529Z,87.47
2019-05-21T21:37:06.446Z,87.55
2019-05-21T21:39:34.278Z,87.64
2019-05-21T21:42:02.305Z,87.98
2019-05-21T21:44:34.086Z,87.93
2019-05-21T21:47:02.064Z,87.99
2019-05-21T21:49:30.663Z,88.18
2019-05-21T21:51:59.264Z,87.85
2019-05-21T21:54:26.813Z,87.70
2019-05-21T21:56:54.518Z,87.62
2019-05-21T21:59:22.786Z,87.74
2019-05-21T22:01:54.856Z,87.27
2019-05-21T22:04:27.879Z,87.49
2019-05-21T22:06:55.873Z,87.61
2019-05-21T22:09:27.091Z,87.76
2019-05-21T22:11:55.008Z,87.93
2019-05-21T22:14:22.207Z,88.31
2019-05-21T22:16:51.834Z,87.79
2019-05-21T22:19:20.823Z,88.16
2019-05-21T22:21:48.183Z,87.82
2019-05-21T22:24:15.376Z,88.05
2019-05-21T22:26:43.018Z,87.79
2019-05-21T22:29:11.237Z,87.99
2019-05-21T22:31:38.856Z,87.85
2019-05-21T22:34:06.093Z,87.55
2019-05-21T22:36:33.089Z,87.50
2019-05-21T22:38:59.970Z,87.46
2019-05-21T22:41:27.945Z,87.44
2019-05-21T22:43:55.165Z,87.30
2019-05-21T22:46:22.087Z,87.64
2019-05-21T22:48:49.280Z,87.52
2019-05-21T22:51:16.351Z,87.48
2019-05-21T22:53:44.385Z,87.54
2019-05-21T22:56:12.234Z,87.18
2019-05-21T22:58:40.294Z,87.33
2019-05-21T23:01:09.210Z,87.34
2019-05-21T23:03:36.687Z,87.21
2019-05-21T23:06:04.659Z,87.25
2019-05-21T23:08:32.008Z,87.20
2019-05-21T23:10:58.892Z,87.26
2019-05-21T23:13:26.228Z,87.33
2019-05-21T23:15:55.576Z,87.29
2019-05-21T23:18:22.962Z,87.20
2019-05-21T23:20:50.446Z,87.05
2019-05-21T23:23:21.602Z,87.05
2019-05-21T23:25:48.718Z,86.94
2019-05-21T23:28:15.898Z,87.07
2019-05-21T23:30:43.320Z,87.27
2019-05-21T23:33:12.407Z,87.18
2019-05-21T23:35:40.147Z,87.21
2019-05-21T23:38:08.801Z,87.23
2019-05-21T23:40:35.935Z,87.04
2019-05-21T23:43:03.447Z,86.93
2019-05-21T23:45:31.106Z,86.78
2019-05-21T23:47:58.541Z,86.85
2019-05-21T23:50:27.201Z,86.99
2019-05-21T23:52:56.694Z,86.74
2019-05-21T23:55:23.743Z,87.20
2019-05-21T23:57:51.352Z,86.87
